createdAt,value
2023-01-18T17:01:49.477Z,14.40
2023-01-18T17:03:21.527Z,13.00
2023-01-18T17:04:53.433Z,15.40
2023-01-18T17:06:26.588Z,11.80
2023-01-18T17:07:58.998Z,14.00
2023-01-18T17:09:40.495Z,14.80
2023-01-18T17:11:15.909Z,11.00
2023-01-18T17:12:47.830Z,2.00
2023-01-18T17:14:19.902Z,9.60
2023-01-18T17:15:52.087Z,14.20
2023-01-18T17:17:24.261Z,13.20
2023-01-18T17:18:56.802Z,12.80
2023-01-18T17:20:29.203Z,14.60
2023-01-18T17:22:01.056Z,10.60
2023-01-18T17:23:33.035Z,10.60
2023-01-18T17:25:05.359Z,13.40
2023-01-18T17:26:38.239Z,14.00
2023-01-18T17:28:15.261Z,14.00
2023-01-18T17:29:47.386Z,12.20
2023-01-18T17:31:19.464Z,15.00
2023-01-18T17:32:51.645Z,12.20
2023-01-18T17:34:28.283Z,15.80
2023-01-18T17:36:01.482Z,5.20
2023-01-18T17:37:35.408Z,15.80
2023-01-18T17:39:07.582Z,16.80
2023-01-18T17:40:43.891Z,13.00
2023-01-18T17:42:22.389Z,16.80
2023-01-18T17:43:54.747Z,16.20
2023-01-18T17:45:26.702Z,11.00
2023-01-18T17:46:58.723Z,16.80
2023-01-18T17:48:30.612Z,16.40
2023-01-18T17:50:09.206Z,11.80
2023-01-18T17:51:41.746Z,15.20
2023-01-18T17:53:13.680Z,14.60
2023-01-18T17:54:45.505Z,15.60
2023-01-18T17:56:18.343Z,16.40
2023-01-18T17:57:50.302Z,12.00
2023-01-18T17:59:22.545Z,16.20
2023-01-18T18:00:55.589Z,18.00
2023-01-18T18:02:27.611Z,15.80
2023-01-18T18:03:59.589Z,17.60
2023-01-18T18:05:31.513Z,17.40
2023-01-18T18:07:03.414Z,14.00
2023-01-18T18:08:35.512Z,19.20
2023-01-18T18:10:07.934Z,26.40
2023-01-18T18:11:39.840Z,37.40
2023-01-18T18:13:11.725Z,39.75
2023-01-18T18:14:43.661Z,42.25
2023-01-18T18:16:18.803Z,48.00
2023-01-18T18:17:51.285Z,53.00
2023-01-18T18:19:23.210Z,56.50
2023-01-18T18:21:02.680Z,57.50
2023-01-18T18:22:34.632Z,59.75
2023-01-18T18:24:06.824Z,65.50
2023-01-18T18:25:38.796Z,66.00
2023-01-18T18:27:10.783Z,73.80
2023-01-18T18:28:42.848Z,72.20
2023-01-18T18:30:15.686Z,78.00
2023-01-18T18:31:47.825Z,78.75
2023-01-18T18:33:20.062Z,87.00
2023-01-18T18:34:52.763Z,94.50
2023-01-18T18:36:27.584Z,91.50
2023-01-18T18:38:00.324Z,96.00
2023-01-18T18:39:33.189Z,104.25
2023-01-18T18:41:06.268Z,99.25
2023-01-18T18:42:38.212Z,106.75
2023-01-18T18:44:10.366Z,107.00
2023-01-18T18:45:42.984Z,110.75
2023-01-18T18:47:14.973Z,109.25
2023-01-18T18:48:47.274Z,109.00
2023-01-18T18:50:19.432Z,115.00
2023-01-18T18:51:51.400Z,102.25
2023-01-18T18:53:29.657Z,111.75
2023-01-18T18:55:10.521Z,103.25
2023-01-18T18:56:43.434Z,101.00
2023-01-18T18:58:15.745Z,103.25
2023-01-18T18:59:47.911Z,126.75
2023-01-18T19:01:27.482Z,117.50
2023-01-18T19:03:03.413Z,110.75
2023-01-18T19:04:36.229Z,104.00
2023-01-18T19:06:08.795Z,95.00
2023-01-18T19:07:42.613Z,92.50
2023-01-18T19:09:14.539Z,90.50
2023-01-18T19:10:48.774Z,88.75
2023-01-18T19:12:20.688Z,89.75
2023-01-18T19:13:54.275Z,84.25
2023-01-18T19:15:26.312Z,90.25
2023-01-18T19:16:58.612Z,85.75
2023-01-18T19:18:31.051Z,89.25
2023-01-18T19:20:03.840Z,90.75
2023-01-18T19:21:36.862Z,90.00
2023-01-18T19:23:09.119Z,135.50
2023-01-18T19:24:40.982Z,115.00
2023-01-18T19:26:13.140Z,106.25
2023-01-18T19:27:45.176Z,126.50
2023-01-18T19:29:17.023Z,121.75
2023-01-18T19:30:49.118Z,131.33
2023-01-18T19:32:21.059Z,132.33
2023-01-18T19:33:55.354Z,125.25
2023-01-18T19:35:27.343Z,133.00
2023-01-18T19:36:59.421Z,135.33
2023-01-18T19:38:31.279Z,140.67
2023-01-18T19:40:03.347Z,133.67
2023-01-18T19:41:35.668Z,144.00
2023-01-18T19:43:07.791Z,136.33
2023-01-18T19:44:39.761Z,140.67
2023-01-18T19:46:12.400Z,141.67
2023-01-18T19:47:44.307Z,137.67
2023-01-18T19:49:16.284Z,142.33
2023-01-18T19:50:48.149Z,135.33
2023-01-18T19:52:20.056Z,133.67
2023-01-18T19:53:55.243Z,129.00
2023-01-18T19:55:27.643Z,134.00
2023-01-18T19:57:00.304Z,139.00
2023-01-18T19:58:33.674Z,131.67
2023-01-18T20:00:10.247Z,137.00
2023-01-18T20:01:45.402Z,139.00
2023-01-18T20:03:17.524Z,135.67
2023-01-18T20:04:49.655Z,138.67
2023-01-18T20:06:21.632Z,144.00
2023-01-18T20:07:54.094Z,137.00
2023-01-18T20:09:38.351Z,138.00
2023-01-18T20:11:14.844Z,134.67
2023-01-18T20:12:49.789Z,137.00
2023-01-18T20:14:24.367Z,140.67
2023-01-18T20:15:56.895Z,137.33
2023-01-18T20:17:28.781Z,135.33
2023-01-18T20:19:00.940Z,140.33
2023-01-18T20:20:33.083Z,135.33
2023-01-18T20:22:04.958Z,134.00
2023-01-18T20:23:37.341Z,126.33
2023-01-18T20:25:11.407Z,135.33
2023-01-18T20:26:43.298Z,132.67
2023-01-18T20:28:15.578Z,116.50
2023-01-18T20:29:47.678Z,127.33
2023-01-18T20:31:19.702Z,125.50
2023-01-18T20:32:51.587Z,124.00
2023-01-18T20:34:23.667Z,126.00
2023-01-18T20:35:55.530Z,137.67
2023-01-18T20:37:27.467Z,122.75
2023-01-18T20:38:59.438Z,116.75
2023-01-18T20:40:31.344Z,119.25
2023-01-18T20:42:03.425Z,120.75
2023-01-18T20:43:35.578Z,115.75
2023-01-18T20:45:07.731Z,121.00
2023-01-18T20:46:39.662Z,120.00
2023-01-18T20:48:14.085Z,126.50
2023-01-18T20:49:47.115Z,122.75
2023-01-18T20:51:19.030Z,124.00
2023-01-18T20:52:54.095Z,129.25
2023-01-18T20:54:26.347Z,118.75
2023-01-18T20:56:02.419Z,111.50
2023-01-18T20:57:34.628Z,117.25
2023-01-18T20:59:06.478Z,123.75
2023-01-18T21:00:38.554Z,125.00
2023-01-18T21:02:10.633Z,121.25
2023-01-18T21:03:46.595Z,124.75
2023-01-18T21:05:18.526Z,111.50
2023-01-18T21:06:50.474Z,119.75
2023-01-18T21:08:22.588Z,110.00
2023-01-18T21:09:54.548Z,121.00
2023-01-18T21:11:27.006Z,114.25
2023-01-18T21:12:59.217Z,105.25
2023-01-18T21:14:31.242Z,109.00
2023-01-18T21:16:03.248Z,116.00
2023-01-18T21:17:35.805Z,117.75
2023-01-18T21:19:08.013Z,109.50
2023-01-18T21:20:39.839Z,113.00
2023-01-18T21:22:12.651Z,113.75
2023-01-18T21:23:44.582Z,112.00
2023-01-18T21:25:16.814Z,118.00
2023-01-18T21:26:48.600Z,113.75
2023-01-18T21:28:20.601Z,103.25
2023-01-18T21:29:53.607Z,111.75
2023-01-18T21:31:25.626Z,112.50
2023-01-18T21:32:57.543Z,112.75
2023-01-18T21:34:29.606Z,119.25
2023-01-18T21:36:09.299Z,152.33
2023-01-18T21:37:41.863Z,131.67
2023-01-18T21:39:18.617Z,118.50
2023-01-18T21:40:50.569Z,120.25
2023-01-18T21:42:41.037Z,121.50
2023-01-18T21:44:31.295Z,126.25
2023-01-18T21:46:04.338Z,122.25
2023-01-18T21:47:36.247Z,121.75
2023-01-18T21:49:08.221Z,124.75
2023-01-18T21:50:59.177Z,130.33
2023-01-18T21:52:49.988Z,118.25
2023-01-18T21:54:22.676Z,132.67
2023-01-18T21:55:54.510Z,122.75
2023-01-18T21:57:26.419Z,126.50
2023-01-18T21:59:00.743Z,120.25
2023-01-18T22:00:32.660Z,123.50
2023-01-18T22:02:05.226Z,125.75
2023-01-18T22:03:37.269Z,122.00
2023-01-18T22:05:10.089Z,122.50
2023-01-18T22:06:41.988Z,117.25
2023-01-18T22:08:13.919Z,118.50
2023-01-18T22:10:02.659Z,117.25
2023-01-18T22:11:35.913Z,114.75
2023-01-18T22:13:07.851Z,119.25
2023-01-18T22:14:39.726Z,102.75
2023-01-18T22:16:11.557Z,112.00
2023-01-18T22:17:43.517Z,108.50
2023-01-18T22:19:15.632Z,111.50
2023-01-18T22:20:56.399Z,104.00
2023-01-18T22:22:28.382Z,104.00
2023-01-18T22:24:00.355Z,100.50
2023-01-18T22:25:32.242Z,99.00
2023-01-18T22:27:04.810Z,92.75
2023-01-18T22:28:36.719Z,94.00
2023-01-18T22:30:10.609Z,86.75
2023-01-18T22:31:42.384Z,83.50
2023-01-18T22:33:14.548Z,87.00
2023-01-18T22:34:46.498Z,84.50
2023-01-18T22:36:18.325Z,80.00
2023-01-18T22:37:50.244Z,81.50
2023-01-18T22:39:22.143Z,78.25
2023-01-18T22:41:04.227Z,78.00
2023-01-18T22:42:36.053Z,76.40
2023-01-18T22:44:08.101Z,72.20
2023-01-18T22:45:40.036Z,74.60
2023-01-18T22:47:11.839Z,69.80
2023-01-18T22:48:43.781Z,72.20
2023-01-18T22:50:16.116Z,66.80
2023-01-18T22:51:48.119Z,61.60
2023-01-18T22:53:20.833Z,64.50
2023-01-18T22:54:52.821Z,59.00
2023-01-18T22:56:25.110Z,63.00
2023-01-18T22:57:57.015Z,66.60
2023-01-18T22:59:29.132Z,63.75
2023-01-18T23:01:01.248Z,61.25
2023-01-18T23:02:33.692Z,59.25
2023-01-18T23:04:05.726Z,57.75
2023-01-18T23:05:37.691Z,54.75
2023-01-18T23:07:09.686Z,49.75
2023-01-18T23:08:44.824Z,42.00
2023-01-18T23:10:16.810Z,36.50
2023-01-18T23:11:49.146Z,42.75
2023-01-18T23:13:21.027Z,43.50
2023-01-18T23:15:11.338Z,44.00
2023-01-18T23:17:02.252Z,44.75
2023-01-18T23:18:34.169Z,54.00
2023-01-18T23:20:07.281Z,56.00
2023-01-18T23:21:39.197Z,57.75
2023-01-18T23:23:11.049Z,53.75
2023-01-18T23:24:42.968Z,63.25
2023-01-18T23:26:14.972Z,58.25
2023-01-18T23:27:46.967Z,63.40
2023-01-18T23:29:18.957Z,59.50
2023-01-18T23:30:50.839Z,66.60
2023-01-18T23:32:28.160Z,64.00
2023-01-18T23:34:00.066Z,69.60
